Wellington, New Zealand
Current Conditions -  °F | °C
As of 12:00 PM on Sunday 26 Oct 2014 (Local Time) from NZWN Reporting Station
Clear Clear  
Wind Chill: 61°   Ceiling: Unl
Heat Index: 61°   Visibility: 6mi
Dew Point: 43°   Wind: 23mph
Humidity: 52%   Direction: 350°N
Pressure: 29.88"   Gusts: 36mph
Location:  41.29°S, 174.78°E
Report Text: NZWN 260000Z AUTO 35020G31KT 9999 NCD 16/06 Q1012 NOSIG
Loading
Personal Weather Stations






























Interactive Weather Map
Tropical Storm Tracking
New forecast layout! Learn more

10-Day Weather Forecast

Advertisements
Track Severe Weather on mobile